Time;durP1;ratioP1;P1;durP2;ratioP2;P2;SDS_P1;SDS_P2;PMS_P1;PMS_P2;Temp;Humidity;BMP_temperature;BMP_pressure;BME280_temperature;BME280_humidity;BME280_pressure;Samples;Min_cycle;Max_cycle;Signal;HPM_P1;HPM_P2
2023/10/14 00:01:34;;;;;;;4.63;2.53;;;;;;;;;;5049594;28;20094;-76
2023/10/14 00:04:04;;;;;;;10.13;2.90;;;;;;;;;;5049656;28;20037;-75
2023/10/14 00:06:30;;;;;;;7.20;3.30;;;;;;;;;;5031144;28;20075;-75
2023/10/14 00:11:22;;;;;;;6.60;3.53;;;;;;;;;;5031377;28;20021;-76
2023/10/14 00:13:52;;;;;;;9.75;3.35;;;;;;;;;;5030753;28;20051;-75
2023/10/14 00:18:51;;;;;;;9.30;3.08;;;;;;;;;;5033957;28;20029;-75
2023/10/14 00:21:18;;;;;;;6.07;2.80;;;;;;;;;;5035840;28;20029;-75
2023/10/14 00:23:44;;;;;;;6.53;3.65;;;;;;;;;;5051101;28;20028;-76
2023/10/14 00:26:20;;;;;;;11.60;3.55;;;;;;;;;;5049845;28;20036;-75
2023/10/14 00:28:46;;;;;;;7.20;3.10;;;;;;;;;;5045445;28;20021;-75
2023/10/14 00:31:13;;;;;;;12.30;2.83;;;;;;;;;;5031283;28;20439;-74
2023/10/14 00:33:39;;;;;;;8.82;3.30;;;;;;;;;;5031640;28;20060;-75
2023/10/14 00:36:10;;;;;;;5.38;2.80;;;;;;;;;;5030879;28;20022;-75
2023/10/14 00:38:38;;;;;;;11.00;3.65;;;;;;;;;;5029782;28;20115;-75
2023/10/14 00:41:03;;;;;;;9.73;3.95;;;;;;;;;;5030947;28;20033;-74
2023/10/14 00:43:29;;;;;;;7.85;3.10;;;;;;;;;;5030816;28;20397;-75
2023/10/14 00:45:54;;;;;;;9.95;3.42;;;;;;;;;;5030813;28;20385;-75
2023/10/14 00:48:27;;;;;;;9.38;3.08;;;;;;;;;;5028860;28;20557;-75
2023/10/14 00:50:59;;;;;;;9.07;3.15;;;;;;;;;;5045598;28;20123;-75
2023/10/14 00:53:28;;;;;;;8.98;3.10;;;;;;;;;;5046007;28;20025;-75
2023/10/14 00:55:57;;;;;;;10.75;4.15;;;;;;;;;;5046563;28;20025;-76
2023/10/14 00:58:24;;;;;;;5.63;2.80;;;;;;;;;;5063308;28;20055;-75
2023/10/14 01:01:00;;;;;;;11.80;4.13;;;;;;;;;;5049003;28;20033;-75
2023/10/14 01:03:34;;;;;;;10.98;3.30;;;;;;;;;;5048010;28;20098;-75
2023/10/14 01:06:15;;;;;;;8.43;3.33;;;;;;;;;;5034104;28;20028;-75
2023/10/14 01:08:43;;;;;;;8.50;3.05;;;;;;;;;;5030521;28;20085;-75
2023/10/14 01:11:09;;;;;;;9.13;3.03;;;;;;;;;;5029864;28;20037;-76
2023/10/14 01:13:36;;;;;;;7.07;3.25;;;;;;;;;;5028120;28;20054;-75
2023/10/14 01:16:08;;;;;;;5.78;2.97;;;;;;;;;;5029548;28;20420;-75
2023/10/14 01:18:39;;;;;;;11.10;3.78;;;;;;;;;;5029687;28;20045;-75
2023/10/14 01:21:06;;;;;;;10.13;3.80;;;;;;;;;;5029468;28;20712;-75
2023/10/14 01:23:35;;;;;;;9.68;2.83;;;;;;;;;;5031237;28;20041;-74
2023/10/14 01:26:04;;;;;;;10.68;4.25;;;;;;;;;;5045151;28;20031;-74
2023/10/14 01:28:30;;;;;;;7.53;3.75;;;;;;;;;;5029464;28;20100;-76
2023/10/14 01:33:56;;;;;;;8.20;3.55;;;;;;;;;;5033840;28;20501;-76
2023/10/14 01:36:32;;;;;;;7.15;3.28;;;;;;;;;;5048516;28;20527;-76
2023/10/14 01:39:04;;;;;;;7.05;3.30;;;;;;;;;;5048747;28;20033;-75
2023/10/14 01:41:30;;;;;;;8.38;3.65;;;;;;;;;;5039710;28;20075;-75
2023/10/14 01:43:59;;;;;;;6.28;3.00;;;;;;;;;;5048834;28;20029;-76
2023/10/14 01:46:27;;;;;;;8.13;4.20;;;;;;;;;;5048883;28;20394;-76
2023/10/14 01:48:55;;;;;;;12.50;4.05;;;;;;;;;;5032446;28;20067;-76
2023/10/14 01:51:21;;;;;;;9.30;3.00;;;;;;;;;;5036724;28;20474;-76
2023/10/14 01:53:46;;;;;;;12.05;2.90;;;;;;;;;;5036026;28;20025;-75
2023/10/14 01:56:12;;;;;;;9.57;3.60;;;;;;;;;;5034445;28;20060;-76
2023/10/14 01:58:40;;;;;;;8.07;3.80;;;;;;;;;;5050514;28;20035;-76
2023/10/14 02:03:51;;;;;;;9.38;3.30;;;;;;;;;;5033559;28;20026;-75
2023/10/14 02:06:21;;;;;;;8.85;3.47;;;;;;;;;;5031418;28;20021;-75
2023/10/14 02:08:50;;;;;;;7.80;3.35;;;;;;;;;;5065823;28;20029;-75
2023/10/14 02:11:16;;;;;;;8.20;3.05;;;;;;;;;;5051811;28;20024;-75
2023/10/14 02:13:42;;;;;;;10.65;3.60;;;;;;;;;;5051776;28;20128;-76
2023/10/14 02:16:08;;;;;;;8.27;3.47;;;;;;;;;;5068393;28;20048;-75
2023/10/14 02:18:38;;;;;;;10.23;3.13;;;;;;;;;;5036674;28;20060;-75
2023/10/14 02:21:11;;;;;;;8.43;3.20;;;;;;;;;;5033390;28;20036;-75
2023/10/14 02:23:45;;;;;;;10.55;3.30;;;;;;;;;;5031284;28;20029;-76
2023/10/14 02:26:24;;;;;;;5.40;3.03;;;;;;;;;;5032895;28;20025;-76
2023/10/14 02:28:52;;;;;;;6.97;3.10;;;;;;;;;;5048229;28;20018;-76
2023/10/14 02:31:43;;;;;;;5.38;3.38;;;;;;;;;;5032651;28;20036;-75
2023/10/14 02:34:06;;;;;;;9.50;2.88;;;;;;;;;;5032209;28;20049;-74
2023/10/14 02:36:35;;;;;;;6.80;3.47;;;;;;;;;;5031999;28;20029;-75
2023/10/14 02:39:04;;;;;;;5.30;2.60;;;;;;;;;;5031130;28;20033;-76
2023/10/14 02:41:32;;;;;;;5.50;3.10;;;;;;;;;;5047169;28;20504;-75
2023/10/14 02:46:34;;;;;;;5.22;2.42;;;;;;;;;;5033148;28;20027;-76
2023/10/14 02:49:03;;;;;;;4.55;2.25;;;;;;;;;;5036692;28;20534;-77
2023/10/14 02:51:35;;;;;;;7.10;3.00;;;;;;;;;;5051454;28;20112;-76
2023/10/14 02:54:15;;;;;;;4.93;2.75;;;;;;;;;;5052368;28;20025;-75
2023/10/14 02:59:35;;;;;;;5.50;2.60;;;;;;;;;;5039162;28;20052;-74
2023/10/14 03:07:43;;;;;;;5.88;3.40;;;;;;;;;;5033141;28;20067;-76
2023/10/14 03:12:50;;;;;;;5.70;2.38;;;;;;;;;;5048261;23;20509;-74
2023/10/14 03:15:21;;;;;;;7.75;2.83;;;;;;;;;;5051439;28;20071;-77
2023/10/14 03:18:01;;;;;;;6.82;2.50;;;;;;;;;;5051772;28;20075;-75
2023/10/14 03:23:27;;;;;;;8.93;2.70;;;;;;;;;;5052385;28;20079;-75
2023/10/14 03:28:50;;;;;;;6.82;2.70;;;;;;;;;;5030577;28;20064;-79
2023/10/14 03:31:19;;;;;;;6.47;3.58;;;;;;;;;;5035235;28;20037;-81
2023/10/14 03:33:45;;;;;;;6.55;2.50;;;;;;;;;;5055140;28;20029;-80
2023/10/14 03:36:17;;;;;;;8.02;2.85;;;;;;;;;;5051218;28;20036;-80
2023/10/14 03:38:54;;;;;;;7.38;2.58;;;;;;;;;;5051903;28;20104;-80
2023/10/14 03:41:21;;;;;;;8.57;2.67;;;;;;;;;;5033219;28;20088;-79
2023/10/14 03:48:58;;;;;;;6.47;2.75;;;;;;;;;;5051717;28;20056;-80
2023/10/14 03:51:24;;;;;;;5.90;2.47;;;;;;;;;;5051332;28;20029;-80
2023/10/14 03:53:54;;;;;;;4.85;2.63;;;;;;;;;;5051084;28;20056;-79
2023/10/14 03:56:25;;;;;;;6.60;2.83;;;;;;;;;;5032534;28;20043;-74
2023/10/14 03:58:59;;;;;;;10.05;2.97;;;;;;;;;;5050910;28;20086;-74
2023/10/14 04:01:33;;;;;;;6.70;2.72;;;;;;;;;;5032880;28;20028;-73
2023/10/14 04:04:01;;;;;;;7.68;2.40;;;;;;;;;;5033560;28;20043;-74
2023/10/14 04:06:27;;;;;;;6.20;3.15;;;;;;;;;;5048841;28;20468;-75
2023/10/14 04:08:54;;;;;;;7.63;2.13;;;;;;;;;;5050702;28;20027;-74
2023/10/14 04:11:25;;;;;;;9.43;2.80;;;;;;;;;;5032501;28;20362;-74
2023/10/14 04:13:58;;;;;;;5.90;2.70;;;;;;;;;;5069844;28;20055;-75
2023/10/14 04:16:28;;;;;;;8.85;2.95;;;;;;;;;;5068914;28;20043;-74
2023/10/14 04:19:00;;;;;;;6.18;2.83;;;;;;;;;;5070603;28;20016;-73
2023/10/14 04:21:35;;;;;;;9.32;2.72;;;;;;;;;;5069201;28;20020;-74
2023/10/14 04:26:49;;;;;;;5.70;2.72;;;;;;;;;;5070753;28;20104;-78
2023/10/14 04:29:36;;;;;;;8.75;2.50;;;;;;;;;;5052361;28;20028;-78
2023/10/14 04:32:13;;;;;;;6.70;2.95;;;;;;;;;;5068967;28;20025;-77
2023/10/14 04:34:44;;;;;;;7.80;2.75;;;;;;;;;;5069921;28;20081;-78
2023/10/14 04:37:12;;;;;;;6.90;2.53;;;;;;;;;;5068812;28;20031;-77
2023/10/14 04:39:42;;;;;;;5.57;2.47;;;;;;;;;;5051715;28;20021;-77
2023/10/14 04:44:45;;;;;;;9.18;3.28;;;;;;;;;;5069739;28;20247;-77
2023/10/14 04:47:19;;;;;;;6.93;2.95;;;;;;;;;;5069853;28;20416;-77
2023/10/14 04:49:51;;;;;;;8.27;3.70;;;;;;;;;;5051627;28;20058;-78
2023/10/14 04:52:22;;;;;;;7.28;2.67;;;;;;;;;;5052083;28;20048;-78
2023/10/14 04:54:54;;;;;;;4.80;2.83;;;;;;;;;;5068696;28;20055;-78
2023/10/14 04:57:24;;;;;;;6.32;2.58;;;;;;;;;;5069608;28;20028;-77
2023/10/14 04:59:54;;;;;;;5.38;2.47;;;;;;;;;;5070319;28;20399;-77
2023/10/14 05:02:21;;;;;;;6.07;2.80;;;;;;;;;;5069513;28;20119;-78
2023/10/14 05:04:51;;;;;;;5.05;2.90;;;;;;;;;;5075451;28;20119;-77
2023/10/14 05:07:19;;;;;;;6.00;2.63;;;;;;;;;;5072817;28;20108;-76
2023/10/14 05:09:56;;;;;;;7.32;2.58;;;;;;;;;;5059198;28;20066;-76
2023/10/14 05:12:25;;;;;;;9.90;2.75;;;;;;;;;;5075024;28;20044;-77
2023/10/14 05:14:52;;;;;;;6.43;2.65;;;;;;;;;;5073320;28;20035;-77
2023/10/14 05:17:25;;;;;;;7.43;2.78;;;;;;;;;;5074037;28;20028;-78
2023/10/14 05:19:57;;;;;;;5.50;2.40;;;;;;;;;;5074300;28;20573;-77
2023/10/14 05:22:37;;;;;;;6.18;2.60;;;;;;;;;;5072911;28;20036;-77
2023/10/14 05:25:08;;;;;;;6.80;3.25;;;;;;;;;;5072810;28;20020;-77
2023/10/14 05:27:46;;;;;;;4.95;2.90;;;;;;;;;;5055735;28;20020;-77
2023/10/14 05:30:15;;;;;;;8.88;3.22;;;;;;;;;;5055490;28;20078;-77
2023/10/14 05:32:43;;;;;;;7.80;2.40;;;;;;;;;;5074039;28;20063;-78
2023/10/14 05:35:10;;;;;;;4.70;2.60;;;;;;;;;;5089733;28;20418;-78
2023/10/14 05:37:41;;;;;;;9.70;2.75;;;;;;;;;;5056447;28;20040;-77
2023/10/14 05:40:13;;;;;;;6.50;3.30;;;;;;;;;;5056801;28;20024;-78
2023/10/14 05:42:43;;;;;;;8.45;2.35;;;;;;;;;;5074114;28;20067;-78
2023/10/14 05:45:11;;;;;;;11.18;3.97;;;;;;;;;;5073517;28;20028;-78
2023/10/14 05:47:37;;;;;;;6.18;2.80;;;;;;;;;;5074575;28;20051;-78
2023/10/14 05:50:08;;;;;;;4.60;2.40;;;;;;;;;;5056318;28;20029;-77
2023/10/14 05:52:34;;;;;;;4.90;2.72;;;;;;;;;;5073855;28;20118;-77
2023/10/14 05:55:05;;;;;;;6.97;3.40;;;;;;;;;;5073719;28;20127;-80
2023/10/14 05:57:39;;;;;;;8.30;3.13;;;;;;;;;;5077758;28;20366;-77
2023/10/14 06:00:20;;;;;;;4.07;2.40;;;;;;;;;;5077045;28;20032;-77
2023/10/14 06:02:48;;;;;;;8.20;2.80;;;;;;;;;;5086905;28;20029;-78
2023/10/14 06:05:16;;;;;;;7.55;2.85;;;;;;;;;;5051467;28;20046;-78
2023/10/14 06:07:47;;;;;;;5.47;2.92;;;;;;;;;;5078208;28;20150;-78
2023/10/14 06:10:23;;;;;;;10.25;2.80;;;;;;;;;;5060829;28;20099;-76
2023/10/14 06:12:52;;;;;;;11.52;3.28;;;;;;;;;;5059328;28;20053;-77
2023/10/14 06:15:19;;;;;;;8.45;3.20;;;;;;;;;;5073179;28;20028;-77
2023/10/14 06:17:46;;;;;;;5.10;2.95;;;;;;;;;;5072815;28;20107;-77
2023/10/14 06:20:16;;;;;;;9.20;2.92;;;;;;;;;;5072362;28;20063;-78
2023/10/14 06:22:43;;;;;;;4.95;3.00;;;;;;;;;;5072262;28;20116;-77
2023/10/14 06:25:20;;;;;;;8.07;3.13;;;;;;;;;;5055626;28;20111;-77
2023/10/14 06:27:46;;;;;;;8.05;2.83;;;;;;;;;;5055042;28;20025;-78
2023/10/14 06:30:20;;;;;;;5.57;3.20;;;;;;;;;;5069973;28;20086;-77
2023/10/14 06:33:11;;;;;;;27.70;3.60;;;;;;;;;;5034713;28;20060;-77
2023/10/14 06:35:42;;;;;;;6.28;2.78;;;;;;;;;;5053457;28;20032;-78
2023/10/14 06:38:09;;;;;;;7.73;2.73;;;;;;;;;;5053948;28;20029;-78
2023/10/14 06:40:36;;;;;;;5.63;3.00;;;;;;;;;;5064381;28;20321;-77
2023/10/14 06:43:13;;;;;;;6.70;2.72;;;;;;;;;;5076682;28;20116;-79
2023/10/14 06:45:39;;;;;;;9.35;3.38;;;;;;;;;;5080032;28;20025;-79
2023/10/14 06:48:12;;;;;;;8.70;3.20;;;;;;;;;;5078043;28;20032;-78
2023/10/14 06:50:41;;;;;;;7.93;3.05;;;;;;;;;;5077261;28;20029;-79
2023/10/14 06:53:09;;;;;;;6.20;3.15;;;;;;;;;;5076476;28;20097;-78
2023/10/14 06:55:39;;;;;;;14.40;3.50;;;;;;;;;;5074819;28;20364;-78
2023/10/14 06:58:11;;;;;;;7.50;3.67;;;;;;;;;;5094014;28;20020;-78
2023/10/14 07:00:37;;;;;;;6.57;4.05;;;;;;;;;;5078927;28;20073;-79
2023/10/14 07:03:08;;;;;;;8.35;2.65;;;;;;;;;;5061384;28;20040;-78
2023/10/14 07:05:43;;;;;;;10.50;4.30;;;;;;;;;;5080498;28;20051;-78
2023/10/14 07:08:15;;;;;;;5.53;3.50;;;;;;;;;;5082341;28;20817;-80
2023/10/14 07:10:41;;;;;;;10.32;3.50;;;;;;;;;;5065210;28;20089;-78
2023/10/14 07:13:08;;;;;;;10.52;3.72;;;;;;;;;;5074791;28;20049;-74
2023/10/14 07:15:38;;;;;;;7.60;4.07;;;;;;;;;;5074076;28;20563;-74
2023/10/14 07:18:04;;;;;;;9.03;4.13;;;;;;;;;;5073951;28;20119;-74
2023/10/14 07:20:30;;;;;;;8.20;4.03;;;;;;;;;;5056157;28;20028;-77
2023/10/14 07:22:59;;;;;;;9.20;4.07;;;;;;;;;;5073164;28;20021;-75
2023/10/14 07:25:26;;;;;;;7.03;3.65;;;;;;;;;;5054762;28;20031;-74
2023/10/14 07:27:53;;;;;;;6.65;3.70;;;;;;;;;;5071108;28;20384;-74
2023/10/14 07:30:22;;;;;;;9.95;4.53;;;;;;;;;;5069487;28;20025;-75
2023/10/14 07:32:48;;;;;;;6.50;4.43;;;;;;;;;;5053754;28;20102;-76
2023/10/14 07:35:18;;;;;;;8.93;3.53;;;;;;;;;;5070238;28;20016;-74
2023/10/14 07:37:48;;;;;;;7.60;3.97;;;;;;;;;;5071269;28;20025;-75
2023/10/14 07:40:24;;;;;;;8.02;4.03;;;;;;;;;;5053145;28;20123;-74
2023/10/14 07:42:56;;;;;;;10.30;4.40;;;;;;;;;;5069831;28;20111;-75
2023/10/14 07:45:28;;;;;;;13.65;4.50;;;;;;;;;;5070931;28;20017;-74
2023/10/14 07:47:55;;;;;;;8.23;3.88;;;;;;;;;;5069840;28;20029;-75
2023/10/14 07:50:21;;;;;;;8.90;3.80;;;;;;;;;;5069957;28;20032;-76
2023/10/14 07:52:47;;;;;;;11.45;3.97;;;;;;;;;;5069978;28;20115;-77
2023/10/14 07:55:22;;;;;;;11.43;4.60;;;;;;;;;;5086591;28;20028;-73
2023/10/14 07:57:48;;;;;;;7.97;3.50;;;;;;;;;;5051794;28;20031;-74
2023/10/14 08:00:14;;;;;;;8.77;4.28;;;;;;;;;;5069498;28;20036;-74
2023/10/14 08:02:41;;;;;;;10.63;3.90;;;;;;;;;;5069941;28;20029;-74
2023/10/14 08:05:08;;;;;;;9.20;3.88;;;;;;;;;;5052720;28;20040;-75
2023/10/14 08:07:40;;;;;;;6.38;4.18;;;;;;;;;;5070655;28;20396;-75
2023/10/14 08:10:18;;;;;;;10.52;3.90;;;;;;;;;;5052770;28;20387;-75
2023/10/14 08:12:45;;;;;;;10.57;4.70;;;;;;;;;;5052333;28;20059;-76
2023/10/14 08:15:11;;;;;;;11.93;5.80;;;;;;;;;;5069044;28;20047;-74
2023/10/14 08:17:38;;;;;;;7.82;4.35;;;;;;;;;;5069508;28;20119;-74
2023/10/14 08:20:12;;;;;;;7.28;4.00;;;;;;;;;;5072582;28;20056;-73
2023/10/14 08:22:39;;;;;;;10.13;4.25;;;;;;;;;;5053969;28;20031;-74
2023/10/14 08:25:07;;;;;;;12.68;4.00;;;;;;;;;;5070553;28;20449;-74
2023/10/14 08:27:34;;;;;;;9.75;4.28;;;;;;;;;;5070607;28;20032;-75
2023/10/14 08:30:10;;;;;;;7.65;3.95;;;;;;;;;;5057908;28;20029;-74
2023/10/14 08:32:37;;;;;;;9.15;4.10;;;;;;;;;;5076222;28;20111;-75
2023/10/14 08:35:14;;;;;;;6.20;4.43;;;;;;;;;;5070564;28;20024;-73
2023/10/14 08:37:43;;;;;;;4.05;3.22;;;;;;;;;;5052115;28;20031;-75
2023/10/14 08:40:15;;;;;;;7.47;3.38;;;;;;;;;;5069768;28;20537;-75
2023/10/14 08:43:06;;;;;;;6.63;3.55;;;;;;;;;;5052130;28;20120;-74
2023/10/14 08:45:36;;;;;;;11.50;3.95;;;;;;;;;;5069523;28;20031;-73
2023/10/14 08:48:08;;;;;;;7.68;3.40;;;;;;;;;;5069896;28;20154;-78
2023/10/14 08:50:36;;;;;;;9.75;4.00;;;;;;;;;;5051573;28;20024;-76
2023/10/14 08:53:04;;;;;;;7.30;3.25;;;;;;;;;;5068518;28;20028;-75
2023/10/14 08:55:34;;;;;;;6.07;3.22;;;;;;;;;;5069989;28;20124;-74
2023/10/14 08:58:02;;;;;;;4.78;3.20;;;;;;;;;;5068550;28;20031;-75
2023/10/14 09:00:29;;;;;;;6.65;3.75;;;;;;;;;;5067825;28;20542;-74
2023/10/14 09:02:57;;;;;;;7.75;3.42;;;;;;;;;;5069119;28;20143;-74
2023/10/14 09:05:26;;;;;;;5.63;3.47;;;;;;;;;;5070001;28;20051;-73
2023/10/14 09:07:55;;;;;;;7.35;3.05;;;;;;;;;;5050971;28;20052;-75
2023/10/14 09:10:24;;;;;;;7.07;3.40;;;;;;;;;;5051271;28;20485;-75
2023/10/14 09:13:10;;;;;;;7.03;3.45;;;;;;;;;;5051508;28;20063;-75
2023/10/14 09:15:42;;;;;;;10.82;3.30;;;;;;;;;;5064844;28;20167;-74
2023/10/14 09:18:16;;;;;;;11.13;2.92;;;;;;;;;;5049869;28;20088;-76
2023/10/14 09:20:43;;;;;;;9.32;3.00;;;;;;;;;;5063763;28;20359;-75
2023/10/14 09:23:19;;;;;;;4.80;2.95;;;;;;;;;;5051418;28;20038;-76
2023/10/14 09:25:52;;;;;;;7.53;3.15;;;;;;;;;;5067421;28;20024;-75
2023/10/14 09:28:35;;;;;;;10.68;2.60;;;;;;;;;;5067411;28;20062;-76
2023/10/14 09:31:03;;;;;;;22.55;3.55;;;;;;;;;;5067812;28;20029;-76
2023/10/14 09:33:34;;;;;;;6.72;3.08;;;;;;;;;;5069655;28;20426;-74
2023/10/14 09:36:11;;;;;;;3.47;2.58;;;;;;;;;;5067440;28;20481;-76
2023/10/14 09:38:37;;;;;;;8.40;3.20;;;;;;;;;;5067849;28;20086;-76
2023/10/14 09:41:05;;;;;;;5.97;2.70;;;;;;;;;;5067699;28;20054;-75
2023/10/14 09:43:32;;;;;;;5.95;3.38;;;;;;;;;;5069472;28;20028;-73
2023/10/14 09:46:08;;;;;;;7.32;2.75;;;;;;;;;;5068968;28;20016;-75
2023/10/14 09:48:35;;;;;;;5.85;2.60;;;;;;;;;;5067778;28;20120;-75
2023/10/14 09:51:03;;;;;;;7.00;2.97;;;;;;;;;;5069092;28;20059;-74
2023/10/14 09:53:32;;;;;;;9.98;2.97;;;;;;;;;;5069820;28;20441;-74
2023/10/14 09:56:11;;;;;;;6.95;2.20;;;;;;;;;;5072980;28;20021;-76
2023/10/14 09:58:46;;;;;;;7.18;2.60;;;;;;;;;;5055711;28;20048;-77
2023/10/14 10:01:19;;;;;;;7.97;2.47;;;;;;;;;;5074057;28;20031;-77
2023/10/14 10:04:18;;;;;;;10.80;2.90;;;;;;;;;;5056541;28;20020;-80
2023/10/14 10:07:04;;;;;;;6.13;2.40;;;;;;;;;;5081954;28;20024;-78
2023/10/14 10:09:57;;;;;;;4.90;2.38;;;;;;;;;;5075714;28;20021;-78
2023/10/14 10:12:25;;;;;;;5.65;2.30;;;;;;;;;;5077717;28;20051;-79
2023/10/14 10:15:06;;;;;;;7.35;3.60;;;;;;;;;;5093326;28;20028;-79
2023/10/14 10:17:34;;;;;;;3.78;2.08;;;;;;;;;;5090149;28;20028;-81
2023/10/14 10:20:25;;;;;;;4.35;1.77;;;;;;;;;;5073731;28;20419;-78
2023/10/14 10:22:52;;;;;;;5.40;2.00;;;;;;;;;;5072503;28;20035;-78
2023/10/14 10:25:21;;;;;;;6.63;2.72;;;;;;;;;;5073237;28;20032;-80
2023/10/14 10:27:49;;;;;;;4.07;2.22;;;;;;;;;;5072969;28;20040;-77
2023/10/14 10:30:17;;;;;;;6.75;1.85;;;;;;;;;;5072249;28;20364;-79
2023/10/14 10:32:48;;;;;;;9.60;2.03;;;;;;;;;;5072851;28;20381;-80
2023/10/14 10:35:19;;;;;;;7.22;2.60;;;;;;;;;;5072943;28;20024;-80
2023/10/14 10:37:47;;;;;;;4.07;2.40;;;;;;;;;;5072444;28;20028;-78
2023/10/14 10:40:15;;;;;;;4.63;2.13;;;;;;;;;;5070877;28;20113;-80
2023/10/14 10:42:50;;;;;;;3.65;2.10;;;;;;;;;;5072335;28;20035;-80
2023/10/14 10:45:25;;;;;;;3.65;2.00;;;;;;;;;;5072351;28;20024;-79
2023/10/14 10:47:59;;;;;;;3.20;2.00;;;;;;;;;;5073428;28;20366;-80
2023/10/14 10:50:37;;;;;;;4.18;1.60;;;;;;;;;;5071297;28;20020;-78
2023/10/14 10:53:06;;;;;;;3.80;2.15;;;;;;;;;;5074813;28;20060;-78
2023/10/14 10:55:36;;;;;;;4.65;2.08;;;;;;;;;;5076180;28;20032;-79
2023/10/14 10:58:03;;;;;;;9.50;2.33;;;;;;;;;;5070714;28;20116;-80
2023/10/14 11:00:31;;;;;;;3.78;1.15;;;;;;;;;;5037438;28;20111;-79
2023/10/14 11:02:57;;;;;;;4.20;1.05;;;;;;;;;;5072184;28;20056;-79
2023/10/14 11:05:25;;;;;;;3.50;0.90;;;;;;;;;;5071389;28;20501;-80
2023/10/14 11:07:52;;;;;;;2.20;0.93;;;;;;;;;;5070902;28;20490;-79
2023/10/14 11:10:38;;;;;;;4.18;0.98;;;;;;;;;;5071405;28;20034;-79
2023/10/14 11:13:04;;;;;;;7.72;1.95;;;;;;;;;;5070377;28;20056;-79
2023/10/14 11:15:31;;;;;;;1.23;0.63;;;;;;;;;;5087150;28;20094;-77
2023/10/14 11:17:58;;;;;;;2.95;0.95;;;;;;;;;;5070600;28;20032;-79
2023/10/14 11:20:34;;;;;;;3.97;1.17;;;;;;;;;;5070850;28;20085;-78
2023/10/14 11:23:00;;;;;;;1.83;1.00;;;;;;;;;;5072033;28;20100;-77
2023/10/14 11:25:30;;;;;;;4.68;1.38;;;;;;;;;;5071669;28;20028;-79
2023/10/14 11:27:56;;;;;;;3.83;1.42;;;;;;;;;;5074032;28;20031;-78
2023/10/14 11:30:25;;;;;;;4.00;1.52;;;;;;;;;;5093128;28;20111;-80
2023/10/14 11:32:51;;;;;;;3.55;1.55;;;;;;;;;;5098657;28;20040;-79
2023/10/14 11:35:18;;;;;;;5.22;2.38;;;;;;;;;;5104162;28;20143;-79
2023/10/14 11:37:52;;;;;;;2.65;1.10;;;;;;;;;;5087595;28;20072;-80
2023/10/14 11:40:19;;;;;;;2.20;1.23;;;;;;;;;;5072193;28;20032;-81
2023/10/14 11:42:44;;;;;;;4.70;1.05;;;;;;;;;;5071217;28;20029;-80
2023/10/14 11:45:10;;;;;;;1.92;1.20;;;;;;;;;;5073430;28;20028;-80
2023/10/14 11:47:39;;;;;;;4.55;1.58;;;;;;;;;;5070781;28;20111;-81
2023/10/14 11:50:11;;;;;;;3.40;1.65;;;;;;;;;;5076692;28;20116;-80
2023/10/14 11:52:39;;;;;;;3.35;1.10;;;;;;;;;;5078241;28;20055;-81
2023/10/14 11:55:04;;;;;;;3.03;1.30;;;;;;;;;;5073908;28;20066;-81
2023/10/14 11:57:31;;;;;;;3.03;1.17;;;;;;;;;;5091430;28;20028;-82
2023/10/14 11:59:58;;;;;;;3.67;1.30;;;;;;;;;;5070619;28;20055;-80
2023/10/14 12:02:24;;;;;;;4.85;1.27;;;;;;;;;;5070523;28;20021;-79
2023/10/14 12:04:50;;;;;;;5.93;2.58;;;;;;;;;;5051966;28;20040;-79
2023/10/14 12:07:16;;;;;;;5.45;1.52;;;;;;;;;;5036439;28;20055;-80
2023/10/14 12:09:42;;;;;;;2.35;1.30;;;;;;;;;;5070288;28;20028;-80
2023/10/14 12:12:08;;;;;;;3.38;1.48;;;;;;;;;;5069996;28;20051;-80
2023/10/14 12:14:36;;;;;;;1.65;1.25;;;;;;;;;;5069801;28;20044;-81
2023/10/14 12:17:04;;;;;;;3.95;1.20;;;;;;;;;;5069499;28;20493;-79
2023/10/14 12:19:31;;;;;;;2.17;1.00;;;;;;;;;;5071557;28;20488;-78
2023/10/14 12:21:57;;;;;;;27.67;15.95;;;;;;;;;;5069377;28;20078;-80
2023/10/14 12:24:25;;;;;;;4.50;1.63;;;;;;;;;;5069536;28;20391;-80
2023/10/14 12:26:52;;;;;;;1.77;1.08;;;;;;;;;;5068976;28;20021;-80
2023/10/14 12:29:20;;;;;;;1.20;1.00;;;;;;;;;;5087502;28;20111;-81
2023/10/14 12:31:46;;;;;;;5.13;1.75;;;;;;;;;;5071399;28;20025;-80
2023/10/14 12:34:13;;;;;;;5.20;1.65;;;;;;;;;;5090379;28;20477;-79
2023/10/14 12:36:40;;;;;;;3.45;1.60;;;;;;;;;;5075939;28;20047;-78
2023/10/14 12:39:18;;;;;;;3.42;1.20;;;;;;;;;;5072765;28;20049;-81
2023/10/14 12:41:43;;;;;;;2.63;1.08;;;;;;;;;;5070979;28;20116;-79
2023/10/14 12:44:13;;;;;;;1.90;1.08;;;;;;;;;;5073844;28;20514;-80
2023/10/14 12:46:40;;;;;;;3.72;1.45;;;;;;;;;;5069458;28;20033;-79
2023/10/14 12:49:10;;;;;;;2.22;1.20;;;;;;;;;;5086141;28;20483;-79
2023/10/14 12:51:42;;;;;;;6.38;1.30;;;;;;;;;;5082342;28;20033;-81
2023/10/14 12:54:10;;;;;;;1.67;1.23;;;;;;;;;;5086138;28;20062;-80
2023/10/14 12:56:38;;;;;;;2.72;1.35;;;;;;;;;;5085571;28;20031;-80
2023/10/14 12:59:12;;;;;;;2.00;1.00;;;;;;;;;;5084539;28;20065;-80
2023/10/14 13:01:38;;;;;;;1.23;1.10;;;;;;;;;;5073239;28;20032;-79
2023/10/14 13:04:12;;;;;;;2.17;1.00;;;;;;;;;;5061605;28;20092;-79
2023/10/14 13:06:44;;;;;;;3.08;1.60;;;;;;;;;;5054767;28;20128;-80
2023/10/14 13:09:11;;;;;;;1.52;1.42;;;;;;;;;;5068285;28;20024;-80
2023/10/14 13:11:43;;;;;;;4.53;1.55;;;;;;;;;;5069920;28;20197;-81
2023/10/14 13:14:08;;;;;;;6.90;1.30;;;;;;;;;;5077160;28;20040;-82
2023/10/14 13:16:34;;;;;;;7.93;5.07;;;;;;;;;;5068258;28;20028;-80
2023/10/14 13:18:59;;;;;;;2.95;1.80;;;;;;;;;;5068336;28;20024;-82
2023/10/14 13:21:31;;;;;;;19.70;11.05;;;;;;;;;;5068675;28;20032;-79
2023/10/14 13:23:56;;;;;;;;;;;;;;;;;;5069624;28;20135;-79
2023/10/14 13:26:22;;;;;;;1.20;1.10;;;;;;;;;;5086152;28;19952;-82
2023/10/14 13:28:50;;;;;;;3.28;1.40;;;;;;;;;;5071610;28;20066;-83
2023/10/14 13:31:20;;;;;;;2.85;1.33;;;;;;;;;;5065930;28;20025;-82
2023/10/14 13:33:49;;;;;;;4.45;2.38;;;;;;;;;;5057465;28;20159;-80
2023/10/14 13:36:15;;;;;;;5.93;3.17;;;;;;;;;;5077545;28;20500;-81
2023/10/14 13:38:40;;;;;;;2.00;1.60;;;;;;;;;;5093175;28;20013;-78
2023/10/14 13:41:07;;;;;;;9.43;6.10;;;;;;;;;;5088897;28;20111;-78
2023/10/14 13:43:33;;;;;;;3.20;2.38;;;;;;;;;;5086573;28;20671;-80
2023/10/14 13:45:59;;;;;;;3.20;2.38;;;;;;;;;;5077188;28;20024;-79
2023/10/14 13:48:24;;;;;;;2.42;1.52;;;;;;;;;;5076000;28;20088;-80
2023/10/14 13:50:54;;;;;;;2.92;2.50;;;;;;;;;;5073721;28;20040;-81
2023/10/14 13:53:21;;;;;;;2.85;1.98;;;;;;;;;;5073714;28;20485;-79
2023/10/14 13:55:53;;;;;;;11.32;3.50;;;;;;;;;;5074493;28;20393;-80
2023/10/14 13:58:18;;;;;;;4.13;2.22;;;;;;;;;;5075130;28;20423;-80
2023/10/14 14:00:49;;;;;;;6.10;2.50;;;;;;;;;;5072917;28;20111;-81
2023/10/14 14:03:15;;;;;;;4.25;2.40;;;;;;;;;;5072243;28;20032;-80
2023/10/14 14:05:47;;;;;;;2.38;1.70;;;;;;;;;;5074271;28;20039;-80
2023/10/14 14:08:12;;;;;;;;;;;;;;;;;;5072272;28;20026;-80
2023/10/14 14:10:41;;;;;;;2.08;1.80;;;;;;;;;;5074329;28;20344;-80
2023/10/14 14:13:06;;;;;;;4.55;2.13;;;;;;;;;;5071243;28;20048;-82
2023/10/14 14:15:32;;;;;;;3.40;1.92;;;;;;;;;;5071592;28;20029;-81
2023/10/14 14:17:59;;;;;;;2.22;2.03;;;;;;;;;;5071249;28;20029;-80
2023/10/14 14:20:25;;;;;;;6.40;2.67;;;;;;;;;;5073636;28;20066;-81
2023/10/14 14:22:57;;;;;;;1.95;1.52;;;;;;;;;;5071761;28;20432;-80
2023/10/14 14:25:23;;;;;;;4.55;2.10;;;;;;;;;;5074112;28;20063;-81
2023/10/14 14:27:49;;;;;;;4.22;2.58;;;;;;;;;;5072165;28;20346;-80
2023/10/14 14:30:14;;;;;;;4.88;2.03;;;;;;;;;;5088228;28;20029;-80
2023/10/14 14:32:41;;;;;;;2.60;2.13;;;;;;;;;;5071123;28;20052;-81
2023/10/14 14:35:08;;;;;;;1.95;1.67;;;;;;;;;;5071032;28;20028;-82
2023/10/14 14:37:43;;;;;;;2.72;2.05;;;;;;;;;;5038871;28;20040;-80
2023/10/14 14:40:44;;;;;;;3.20;1.58;;;;;;;;;;5071638;28;20036;-80
2023/10/14 14:43:02;;;;;;;4.53;1.23;;;;;;;;;;5071125;28;20123;-78
2023/10/14 14:45:28;;;;;;;4.10;1.13;;;;;;;;;;5073829;28;20051;-80
2023/10/14 14:47:59;;;;;;;1.95;0.75;;;;;;;;;;5075963;28;20020;-81
2023/10/14 14:50:29;;;;;;;3.65;1.33;;;;;;;;;;5074046;28;20029;-81
2023/10/14 14:52:55;;;;;;;2.30;1.50;;;;;;;;;;5071734;28;20056;-81
2023/10/14 14:55:22;;;;;;;2.45;1.30;;;;;;;;;;5072538;28;20047;-80
2023/10/14 14:57:48;;;;;;;2.10;1.50;;;;;;;;;;5071560;28;20537;-81
2023/10/14 15:00:14;;;;;;;4.07;1.60;;;;;;;;;;5071276;28;20166;-81
2023/10/14 15:02:40;;;;;;;4.13;1.25;;;;;;;;;;5071103;28;20075;-81
2023/10/14 15:05:06;;;;;;;2.05;1.02;;;;;;;;;;5067896;28;20035;-80
2023/10/14 15:07:34;;;;;;;3.80;2.22;;;;;;;;;;5068089;28;20025;-82
2023/10/14 15:10:03;;;;;;;2.65;1.63;;;;;;;;;;5072903;28;20033;-82
2023/10/14 15:12:31;;;;;;;6.07;2.45;;;;;;;;;;5071167;28;20571;-79
2023/10/14 15:14:57;;;;;;;8.13;2.05;;;;;;;;;;5071662;28;20029;-81
2023/10/14 15:17:23;;;;;;;3.95;1.80;;;;;;;;;;5074071;28;20025;-79
2023/10/14 15:19:49;;;;;;;7.45;4.07;;;;;;;;;;5071495;28;20499;-82
2023/10/14 15:22:15;;;;;;;3.78;2.10;;;;;;;;;;5079193;28;20041;-79
2023/10/14 15:24:42;;;;;;;2.85;1.73;;;;;;;;;;5051667;28;20028;-81
2023/10/14 15:27:07;;;;;;;3.30;1.50;;;;;;;;;;5070264;28;20031;-82
2023/10/14 15:29:33;;;;;;;3.97;1.88;;;;;;;;;;5075424;28;20051;-82
2023/10/14 15:31:58;;;;;;;3.85;1.60;;;;;;;;;;5072048;28;20035;-78
2023/10/14 15:34:27;;;;;;;4.28;1.60;;;;;;;;;;5074320;28;20031;-81
2023/10/14 15:36:53;;;;;;;3.10;1.63;;;;;;;;;;5073158;28;20484;-81
2023/10/14 15:39:30;;;;;;;4.25;1.98;;;;;;;;;;5070344;28;20032;-81